Winterthur, Delaware
Current Conditions -  °F | °C
As of 11:15 AM on Wednesday 26 Nov 2014 (Local Time) from KILG Reporting Station
Moderate Rain Moderate Rain  
Wind Chill: 25°   Ceiling: 600
Heat Index: 34°   Visibility: 1.5mi
Dew Point: 32°   Wind: 12mph
Humidity: 92%   Direction: 360°N
Pressure: 30.02"   Gusts: NA
Location:  39.8°N, 75.61°W
Report Text: KILG 261615Z 36010KT 1 1/2SM R01/6000VP6000FT RA BR BKN006 BKN014 OVC019 01/00 A3002 RMK AO2 PRESFR P0005 I1000 T00110000
Loading
Personal Weather Stations






























Interactive Weather Map New forecast layout! Learn more

10-Day Weather Forecast

Advertisements
Track Severe Weather on mobile